createdAt,value
2018-02-15T05:15:15.066Z,18.30
2018-02-15T05:17:41.305Z,18.30
2018-02-15T05:20:07.526Z,18.30
2018-02-15T05:22:33.752Z,18.30
2018-02-15T05:24:59.980Z,18.30
2018-02-15T05:27:26.231Z,18.30
2018-02-15T05:29:53.251Z,18.30
2018-02-15T05:32:19.490Z,18.40
2018-02-15T05:34:45.769Z,18.30
2018-02-15T05:37:11.991Z,18.40
2018-02-15T05:39:38.225Z,18.40
2018-02-15T05:42:04.498Z,18.30
2018-02-15T05:44:30.749Z,18.30
2018-02-15T05:46:56.986Z,18.30
2018-02-15T05:49:23.548Z,18.30
2018-02-15T05:51:49.924Z,18.30
2018-02-15T05:54:16.165Z,18.20
2018-02-15T05:56:42.402Z,18.00
2018-02-15T05:59:08.615Z,17.80
2018-02-15T06:01:34.875Z,17.70
2018-02-15T06:04:01.555Z,17.40
2018-02-15T06:06:29.038Z,17.20
2018-02-15T06:08:55.637Z,17.10
2018-02-15T06:11:22.686Z,17.10
2018-02-15T06:13:49.276Z,17.10
2018-02-15T06:16:15.540Z,17.00
2018-02-15T06:18:42.579Z,17.10
2018-02-15T06:21:09.208Z,16.90
2018-02-15T06:23:35.647Z,16.80
2018-02-15T06:26:02.860Z,16.70
2018-02-15T06:28:29.451Z,16.70
2018-02-15T06:30:56.195Z,16.60
2018-02-15T06:33:22.652Z,16.90
2018-02-15T06:35:48.912Z,17.10
2018-02-15T06:38:15.343Z,17.20
2018-02-15T06:40:41.795Z,17.20
2018-02-15T06:43:08.246Z,17.30
2018-02-15T06:45:35.067Z,17.30
2018-02-15T06:48:02.110Z,17.40
2018-02-15T06:50:29.545Z,17.40
2018-02-15T06:52:56.139Z,17.40
2018-02-15T06:55:22.919Z,17.40
2018-02-15T06:57:49.948Z,17.50
2018-02-15T07:00:16.382Z,17.50
2018-02-15T07:02:42.804Z,17.50
2018-02-15T07:05:09.071Z,17.50
2018-02-15T07:07:35.899Z,17.50
2018-02-15T07:10:02.428Z,17.50
2018-02-15T07:12:29.034Z,17.50
2018-02-15T07:14:55.319Z,17.60
2018-02-15T07:17:21.580Z,17.60
2018-02-15T07:19:47.890Z,17.60
2018-02-15T07:22:14.684Z,17.60
2018-02-15T07:24:40.938Z,17.60
2018-02-15T07:27:07.503Z,17.70
2018-02-15T07:29:34.111Z,17.70
2018-02-15T07:32:01.434Z,17.70
2018-02-15T07:34:28.147Z,17.70
2018-02-15T07:36:54.407Z,17.70
2018-02-15T07:39:21.398Z,17.70
2018-02-15T07:41:47.644Z,17.80
2018-02-15T07:44:14.466Z,17.80
2018-02-15T07:46:41.479Z,17.80
2018-02-15T07:49:08.351Z,17.80
2018-02-15T07:51:34.671Z,17.80
2018-02-15T07:54:01.268Z,17.80
2018-02-15T07:56:28.014Z,17.80
2018-02-15T07:58:54.287Z,17.90
2018-02-15T08:01:20.535Z,17.90
2018-02-15T08:03:47.776Z,17.90
2018-02-15T08:06:14.215Z,17.90
2018-02-15T08:08:41.039Z,17.90
2018-02-15T08:11:08.182Z,17.90
2018-02-15T08:13:34.771Z,17.90
2018-02-15T08:16:01.466Z,17.90
2018-02-15T08:18:27.808Z,18.00
2018-02-15T08:20:54.379Z,18.00
2018-02-15T08:23:20.631Z,18.00
2018-02-15T08:25:47.319Z,18.00
2018-02-15T08:28:14.937Z,18.00
2018-02-15T08:30:41.230Z,18.00
2018-02-15T08:33:07.672Z,18.00
2018-02-15T08:35:33.929Z,18.00
2018-02-15T08:38:00.181Z,18.00
2018-02-15T08:40:26.761Z,18.10
2018-02-15T08:42:53.278Z,18.10
2018-02-15T08:45:19.708Z,18.10
2018-02-15T08:47:45.963Z,18.10
2018-02-15T08:50:12.438Z,18.10
2018-02-15T08:52:38.719Z,18.10
2018-02-15T08:55:04.967Z,18.10
2018-02-15T08:57:31.691Z,18.10
2018-02-15T08:59:58.193Z,18.10
2018-02-15T09:02:24.458Z,18.10
2018-02-15T09:04:50.924Z,18.20
2018-02-15T09:07:17.355Z,18.20
2018-02-15T09:09:43.623Z,18.20
2018-02-15T09:12:09.887Z,18.20
2018-02-15T09:14:36.371Z,18.20
2018-02-15T09:17:02.810Z,18.20
2018-02-15T09:19:29.783Z,18.20
2018-02-15T09:21:56.675Z,18.20
2018-02-15T09:24:23.693Z,18.20
2018-02-15T09:26:51.028Z,18.20
2018-02-15T09:29:17.457Z,18.20
2018-02-15T09:31:43.711Z,18.20
2018-02-15T09:34:10.019Z,18.20
2018-02-15T09:36:36.271Z,18.30
2018-02-15T09:39:02.530Z,18.30
2018-02-15T09:41:29.198Z,18.30
2018-02-15T09:43:55.452Z,18.30
2018-02-15T09:46:22.290Z,18.20
2018-02-15T09:48:48.980Z,18.30
2018-02-15T09:51:16.377Z,18.30
2018-02-15T09:53:42.928Z,18.30
2018-02-15T09:56:09.211Z,18.30
2018-02-15T09:58:36.045Z,18.30
2018-02-15T10:01:02.406Z,18.30
2018-02-15T10:03:28.679Z,18.30
2018-02-15T10:05:55.377Z,18.30
2018-02-15T10:08:22.234Z,18.30
2018-02-15T10:10:48.768Z,18.30
2018-02-15T10:13:15.363Z,18.30
2018-02-15T10:15:41.631Z,18.30
2018-02-15T10:18:07.926Z,18.30
2018-02-15T10:20:34.218Z,18.30
2018-02-15T10:23:01.120Z,18.40
2018-02-15T10:25:27.366Z,18.40
2018-02-15T10:27:53.999Z,18.40
2018-02-15T10:30:20.581Z,18.40
2018-02-15T10:32:47.029Z,18.40
2018-02-15T10:35:13.283Z,18.40
2018-02-15T10:37:39.947Z,18.40
2018-02-15T10:40:07.267Z,18.40
2018-02-15T10:42:34.411Z,18.40
2018-02-15T10:45:00.655Z,18.40
2018-02-15T10:47:26.913Z,18.40
2018-02-15T10:49:54.554Z,18.40
2018-02-15T10:52:21.128Z,18.40
2018-02-15T10:54:47.752Z,18.40
2018-02-15T10:57:15.119Z,18.40
2018-02-15T10:59:41.799Z,18.40
2018-02-15T11:02:08.290Z,18.40
2018-02-15T11:04:35.120Z,18.40
2018-02-15T11:07:01.470Z,18.40
2018-02-15T11:09:28.071Z,18.40
2018-02-15T11:11:54.818Z,18.40
2018-02-15T11:14:21.412Z,18.40
2018-02-15T11:16:48.617Z,18.40
2018-02-15T11:19:15.206Z,18.40
2018-02-15T11:21:41.458Z,18.50
2018-02-15T11:24:08.549Z,18.50
2018-02-15T11:26:35.545Z,18.40
2018-02-15T11:29:01.890Z,18.40
2018-02-15T11:31:29.360Z,18.40
2018-02-15T11:33:56.557Z,18.50
2018-02-15T11:36:23.823Z,18.40
2018-02-15T11:38:50.118Z,18.40
2018-02-15T11:41:17.104Z,18.50
2018-02-15T11:43:43.411Z,18.50
2018-02-15T11:46:09.880Z,18.50
2018-02-15T11:48:36.431Z,18.50
2018-02-15T11:51:02.678Z,18.50
2018-02-15T11:53:29.587Z,18.50
2018-02-15T11:55:56.079Z,18.50
2018-02-15T11:58:22.336Z,18.50
2018-02-15T12:00:48.592Z,18.50
2018-02-15T12:03:15.260Z,18.50
2018-02-15T12:05:42.004Z,18.40
2018-02-15T12:08:08.750Z,18.50
2018-02-15T12:10:35.284Z,18.50
2018-02-15T12:13:01.543Z,18.40
2018-02-15T12:15:28.687Z,18.50
2018-02-15T12:17:55.122Z,18.50
2018-02-15T12:20:21.875Z,18.50
2018-02-15T12:22:48.156Z,18.50
2018-02-15T12:25:14.420Z,18.50
2018-02-15T12:27:40.711Z,18.50
2018-02-15T12:30:07.148Z,18.50
2018-02-15T12:32:33.839Z,18.50
2018-02-15T12:35:00.502Z,18.50
2018-02-15T12:37:27.488Z,18.50
2018-02-15T12:39:54.491Z,18.50
2018-02-15T12:42:22.276Z,18.50
2018-02-15T12:44:48.712Z,18.50
2018-02-15T12:47:14.993Z,18.50
2018-02-15T12:49:41.846Z,18.50
2018-02-15T12:52:08.112Z,18.50
2018-02-15T12:54:34.780Z,18.50
2018-02-15T12:57:01.833Z,18.50
2018-02-15T12:59:28.608Z,18.50
2018-02-15T13:01:55.017Z,18.50
2018-02-15T13:04:21.269Z,18.50
2018-02-15T13:06:48.084Z,18.50
2018-02-15T13:09:15.908Z,18.50
2018-02-15T13:11:42.922Z,18.50
2018-02-15T13:14:09.176Z,18.50
2018-02-15T13:16:35.801Z,18.50
2018-02-15T13:19:02.068Z,18.50
2018-02-15T13:21:29.063Z,18.50
2018-02-15T13:23:55.311Z,18.50
2018-02-15T13:26:21.559Z,18.50
2018-02-15T13:28:48.154Z,18.50
2018-02-15T13:31:14.408Z,18.50
2018-02-15T13:33:40.877Z,18.50
2018-02-15T13:36:07.131Z,18.50
2018-02-15T13:38:33.586Z,18.50
2018-02-15T13:40:59.831Z,18.50
2018-02-15T13:43:26.083Z,18.50
2018-02-15T13:45:52.458Z,18.50
2018-02-15T13:48:18.899Z,18.50
2018-02-15T13:50:45.189Z,18.50
2018-02-15T13:53:11.444Z,18.50
2018-02-15T13:55:37.704Z,18.50
2018-02-15T13:58:04.873Z,18.50
2018-02-15T14:00:31.401Z,18.50
2018-02-15T14:02:57.677Z,18.50
2018-02-15T14:05:24.582Z,18.50
2018-02-15T14:07:50.884Z,18.50
2018-02-15T14:10:18.137Z,18.50
2018-02-15T14:12:44.393Z,18.50
2018-02-15T14:15:11.722Z,18.50
2018-02-15T14:17:38.539Z,18.50
2018-02-15T14:20:05.063Z,18.50
2018-02-15T14:22:31.812Z,18.50
2018-02-15T14:24:58.556Z,18.50
2018-02-15T14:27:24.995Z,18.50
2018-02-15T14:29:51.260Z,18.50
2018-02-15T14:32:17.546Z,18.50
2018-02-15T14:34:44.549Z,18.50
2018-02-15T14:37:10.835Z,18.50
2018-02-15T14:39:37.332Z,18.50
2018-02-15T14:42:03.593Z,18.50
2018-02-15T14:44:29.899Z,18.50
2018-02-15T14:46:56.508Z,18.50
2018-02-15T14:49:22.949Z,18.50
2018-02-15T14:51:49.248Z,18.50
2018-02-15T14:54:15.506Z,18.50
2018-02-15T14:56:42.476Z,18.50
2018-02-15T14:59:09.014Z,18.50
2018-02-15T15:01:35.831Z,18.50
2018-02-15T15:04:02.087Z,18.50
2018-02-15T15:06:28.886Z,18.50
2018-02-15T15:08:55.383Z,18.50
2018-02-15T15:11:21.663Z,18.50
2018-02-15T15:13:49.068Z,18.50
2018-02-15T15:16:16.083Z,18.50
2018-02-15T15:18:42.885Z,18.50
2018-02-15T15:21:09.261Z,18.50
2018-02-15T15:23:35.860Z,18.50
2018-02-15T15:26:02.298Z,18.50
2018-02-15T15:28:28.568Z,18.50
2018-02-15T15:30:55.177Z,18.50
2018-02-15T15:33:21.727Z,18.50
2018-02-15T15:35:48.667Z,18.50
2018-02-15T15:38:14.935Z,18.50
2018-02-15T15:40:41.934Z,18.50
2018-02-15T15:43:08.602Z,18.50
2018-02-15T15:45:35.040Z,18.50
2018-02-15T15:48:02.336Z,18.50
2018-02-15T15:50:29.454Z,18.50
2018-02-15T15:52:56.396Z,18.50
2018-02-15T15:55:22.791Z,18.50
2018-02-15T15:57:49.714Z,18.50
2018-02-15T16:00:16.570Z,18.50
2018-02-15T16:02:43.397Z,18.50
2018-02-15T16:05:10.239Z,18.50
2018-02-15T16:07:36.508Z,18.50
2018-02-15T16:10:03.535Z,18.50
2018-02-15T16:12:30.023Z,18.50
2018-02-15T16:14:56.455Z,18.50
2018-02-15T16:17:23.049Z,18.50
2018-02-15T16:19:49.301Z,18.50
2018-02-15T16:22:16.234Z,18.50
2018-02-15T16:24:42.942Z,18.50
2018-02-15T16:27:09.203Z,18.50
2018-02-15T16:29:35.463Z,18.50
2018-02-15T16:32:02.669Z,18.50
2018-02-15T16:34:29.353Z,18.50
2018-02-15T16:36:55.790Z,18.50
2018-02-15T16:39:22.536Z,18.50
2018-02-15T16:41:49.128Z,18.50
2018-02-15T16:44:16.080Z,18.50
2018-02-15T16:46:43.085Z,18.50
2018-02-15T16:49:09.942Z,18.50
2018-02-15T16:51:37.115Z,18.50
2018-02-15T16:54:03.364Z,18.50
2018-02-15T16:56:30.373Z,18.50
2018-02-15T16:58:56.619Z,18.50
2018-02-15T17:01:23.808Z,18.50
2018-02-15T17:03:50.496Z,18.50
2018-02-15T17:06:17.517Z,18.50
2018-02-15T17:08:44.312Z,18.50
2018-02-15T17:11:10.569Z,18.50
2018-02-15T17:13:37.594Z,18.50
2018-02-15T17:16:04.034Z,18.50
2018-02-15T17:18:30.476Z,18.50
2018-02-15T17:20:56.746Z,18.50
2018-02-15T17:23:23.354Z,18.50
2018-02-15T17:25:49.655Z,18.50
2018-02-15T17:28:16.075Z,18.50
2018-02-15T17:30:42.679Z,18.50
2018-02-15T17:33:09.263Z,18.50
2018-02-15T17:35:35.515Z,18.50
2018-02-15T17:38:01.827Z,18.50
2018-02-15T17:40:28.274Z,18.50
2018-02-15T17:42:54.554Z,18.50
2018-02-15T17:45:21.116Z,18.50
2018-02-15T17:47:47.589Z,18.60
2018-02-15T17:50:13.880Z,18.50
2018-02-15T17:52:40.166Z,18.60
2018-02-15T17:55:06.428Z,18.60
2018-02-15T17:57:33.266Z,18.60
2018-02-15T17:59:59.514Z,18.60
2018-02-15T18:02:27.383Z,18.60
2018-02-15T18:04:54.356Z,18.60
2018-02-15T18:07:21.306Z,18.60
2018-02-15T18:09:47.698Z,18.60
2018-02-15T18:12:14.555Z,18.60
2018-02-15T18:14:41.960Z,18.60
2018-02-15T18:17:08.703Z,18.60
2018-02-15T18:19:34.988Z,18.60
2018-02-15T18:22:01.639Z,18.60
2018-02-15T18:24:28.325Z,18.60
2018-02-15T18:26:54.611Z,18.60
2018-02-15T18:29:21.154Z,18.60
2018-02-15T18:31:47.483Z,18.70
2018-02-15T18:34:14.353Z,18.70
2018-02-15T18:36:40.608Z,18.70
2018-02-15T18:39:07.266Z,18.70
2018-02-15T18:41:33.858Z,18.70
2018-02-15T18:44:01.090Z,18.70
2018-02-15T18:46:27.813Z,18.70
2018-02-15T18:48:54.084Z,18.70
2018-02-15T18:51:20.621Z,18.70
2018-02-15T18:53:47.133Z,18.70
2018-02-15T18:56:13.567Z,18.80
2018-02-15T18:58:40.012Z,18.80
2018-02-15T19:01:06.761Z,18.80
2018-02-15T19:03:33.501Z,18.80
2018-02-15T19:05:59.940Z,18.80
2018-02-15T19:08:26.203Z,18.80
2018-02-15T19:10:52.455Z,18.80
2018-02-15T19:13:19.306Z,18.80
2018-02-15T19:15:45.612Z,18.80
2018-02-15T19:18:12.605Z,18.80
2018-02-15T19:20:39.681Z,18.80
2018-02-15T19:23:07.163Z,18.80
2018-02-15T19:25:33.604Z,18.80
2018-02-15T19:28:00.197Z,18.80
2018-02-15T19:30:26.788Z,18.80
2018-02-15T19:32:53.096Z,18.80
2018-02-15T19:35:20.179Z,18.80
2018-02-15T19:37:46.554Z,18.80
2018-02-15T19:40:13.136Z,18.80
2018-02-15T19:42:39.600Z,18.80
2018-02-15T19:45:07.112Z,18.80
2018-02-15T19:47:33.387Z,18.80
2018-02-15T19:49:59.833Z,18.90
2018-02-15T19:52:26.582Z,18.80
2018-02-15T19:54:53.253Z,18.80
2018-02-15T19:57:19.770Z,18.90
2018-02-15T19:59:46.032Z,18.90
2018-02-15T20:02:12.479Z,18.90
2018-02-15T20:04:39.697Z,18.90
2018-02-15T20:07:05.982Z,18.90
2018-02-15T20:09:32.269Z,18.90
2018-02-15T20:11:59.241Z,18.90
2018-02-15T20:14:25.511Z,18.90
2018-02-15T20:16:52.059Z,18.90
2018-02-15T20:19:18.652Z,18.90
2018-02-15T20:21:45.389Z,18.90
2018-02-15T20:24:11.828Z,18.90
2018-02-15T20:26:38.820Z,18.90
2018-02-15T20:29:05.172Z,18.90
2018-02-15T20:31:31.591Z,18.90
2018-02-15T20:33:58.198Z,18.90
2018-02-15T20:36:24.791Z,18.90
2018-02-15T20:38:51.384Z,18.90
2018-02-15T20:41:18.166Z,18.90
2018-02-15T20:43:44.880Z,18.90
2018-02-15T20:46:11.321Z,18.90
2018-02-15T20:48:37.916Z,18.90
2018-02-15T20:51:04.498Z,19.00
2018-02-15T20:53:31.863Z,18.90
2018-02-15T20:55:58.138Z,19.00
2018-02-15T20:58:24.740Z,19.00
2018-02-15T21:00:51.485Z,18.90
2018-02-15T21:03:18.086Z,19.00
2018-02-15T21:05:44.673Z,18.90
2018-02-15T21:08:11.112Z,19.00
2018-02-15T21:10:37.552Z,19.00
2018-02-15T21:13:04.298Z,19.00
2018-02-15T21:15:31.043Z,19.00
2018-02-15T21:17:57.788Z,19.00
2018-02-15T21:20:24.227Z,19.00
2018-02-15T21:22:50.871Z,19.00
2018-02-15T21:25:17.413Z,19.00
2018-02-15T21:27:44.014Z,19.00
2018-02-15T21:30:10.265Z,19.00
2018-02-15T21:32:36.571Z,19.00
2018-02-15T21:35:02.846Z,19.00
2018-02-15T21:37:29.303Z,19.00
2018-02-15T21:39:56.618Z,19.00
2018-02-15T21:42:23.102Z,19.00
2018-02-15T21:44:49.395Z,19.00
2018-02-15T21:47:16.147Z,19.00
2018-02-15T21:49:42.407Z,19.00
2018-02-15T21:52:08.714Z,19.00
2018-02-15T21:54:35.144Z,19.00
2018-02-15T21:57:02.359Z,19.00
2018-02-15T21:59:28.616Z,19.00
2018-02-15T22:01:54.917Z,19.00
2018-02-15T22:04:22.244Z,19.00
2018-02-15T22:06:48.499Z,19.10
2018-02-15T22:09:15.251Z,18.80
2018-02-15T22:11:42.469Z,18.60
2018-02-15T22:14:08.774Z,18.30
2018-02-15T22:16:35.436Z,18.20
2018-02-15T22:19:01.653Z,18.20
2018-02-15T22:21:27.893Z,18.10
2018-02-15T22:23:54.142Z,18.30
2018-02-15T22:26:20.362Z,18.50
2018-02-15T22:28:46.609Z,18.60
2018-02-15T22:31:12.904Z,18.70
2018-02-15T22:33:39.138Z,18.70
2018-02-15T22:36:05.375Z,18.70
2018-02-15T22:38:32.345Z,18.70
2018-02-15T22:40:59.337Z,18.70
2018-02-15T22:43:25.600Z,18.70
2018-02-15T22:45:52.051Z,18.70
2018-02-15T22:48:18.289Z,18.80
2018-02-15T22:50:44.503Z,18.80
2018-02-15T22:53:11.517Z,18.80
2018-02-15T22:55:37.793Z,18.70
2018-02-15T22:58:05.003Z,18.80
2018-02-15T23:00:31.832Z,18.80
2018-02-15T23:02:58.055Z,18.70
2018-02-15T23:05:24.272Z,18.80
2018-02-15T23:07:50.524Z,18.80
2018-02-15T23:10:16.769Z,18.70
2018-02-15T23:12:43.008Z,18.80
2018-02-15T23:15:09.231Z,18.80
2018-02-15T23:17:35.590Z,18.80
2018-02-15T23:20:01.865Z,18.70
2018-02-15T23:22:28.098Z,18.70
2018-02-15T23:24:54.338Z,18.70
2018-02-15T23:27:21.334Z,18.80
2018-02-15T23:29:47.569Z,18.70
